sensor_id;sensor_type;location;lat;lon;timestamp;pressure;altitude;pressure_sealevel;temperature;humidity
76205;BME280;64986;55.672;37.628;2023-04-06T00:01:37;100156.16;;;5.60;64.13
76205;BME280;64986;55.672;37.628;2023-04-06T00:04:02;100157.28;;;5.57;64.33
76205;BME280;64986;55.672;37.628;2023-04-06T00:06:28;100152.22;;;5.56;64.40
76205;BME280;64986;55.672;37.628;2023-04-06T00:08:54;100154.97;;;5.54;64.36
76205;BME280;64986;55.672;37.628;2023-04-06T00:11:19;100160.22;;;5.54;64.53
76205;BME280;64986;55.672;37.628;2023-04-06T00:13:45;100168.50;;;5.50;64.60
76205;BME280;64986;55.672;37.628;2023-04-06T00:16:11;100159.19;;;5.47;64.34
76205;BME280;64986;55.672;37.628;2023-04-06T00:18:36;100156.06;;;5.44;64.82
76205;BME280;64986;55.672;37.628;2023-04-06T00:21:02;100163.06;;;5.43;64.97
76205;BME280;64986;55.672;37.628;2023-04-06T00:23:27;100160.47;;;5.43;65.34
76205;BME280;64986;55.672;37.628;2023-04-06T00:25:53;100170.09;;;5.43;64.77
76205;BME280;64986;55.672;37.628;2023-04-06T00:28:18;100168.63;;;5.40;65.05
76205;BME280;64986;55.672;37.628;2023-04-06T00:30:50;100163.72;;;5.37;64.95
76205;BME280;64986;55.672;37.628;2023-04-06T00:33:18;100162.03;;;5.36;64.88
76205;BME280;64986;55.672;37.628;2023-04-06T00:35:43;100159.75;;;5.33;65.04
76205;BME280;64986;55.672;37.628;2023-04-06T00:38:09;100160.91;;;5.31;65.19
76205;BME280;64986;55.672;37.628;2023-04-06T00:40:34;100158.56;;;5.27;65.22
76205;BME280;64986;55.672;37.628;2023-04-06T00:43:00;100155.97;;;5.27;65.31
76205;BME280;64986;55.672;37.628;2023-04-06T00:45:26;100161.34;;;5.26;65.10
76205;BME280;64986;55.672;37.628;2023-04-06T00:47:51;100153.69;;;5.24;65.70
76205;BME280;64986;55.672;37.628;2023-04-06T00:50:17;100159.38;;;5.28;65.50
76205;BME280;64986;55.672;37.628;2023-04-06T00:52:42;100157.25;;;5.23;65.56
76205;BME280;64986;55.672;37.628;2023-04-06T00:55:08;100161.66;;;5.23;65.42
76205;BME280;64986;55.672;37.628;2023-04-06T00:57:34;100155.09;;;5.19;65.73
76205;BME280;64986;55.672;37.628;2023-04-06T00:59:59;100165.03;;;5.15;65.35
76205;BME280;64986;55.672;37.628;2023-04-06T01:02:25;100162.72;;;5.12;65.85
76205;BME280;64986;55.672;37.628;2023-04-06T01:04:52;100154.38;;;5.09;66.24
76205;BME280;64986;55.672;37.628;2023-04-06T01:07:19;100144.56;;;5.03;66.05
76205;BME280;64986;55.672;37.628;2023-04-06T01:09:44;100151.94;;;5.07;66.16
76205;BME280;64986;55.672;37.628;2023-04-06T01:12:10;100153.34;;;5.01;65.91
76205;BME280;64986;55.672;37.628;2023-04-06T01:14:35;100156.78;;;5.02;66.36
76205;BME280;64986;55.672;37.628;2023-04-06T01:17:01;100147.59;;;4.98;66.14
76205;BME280;64986;55.672;37.628;2023-04-06T01:19:27;100153.81;;;4.97;67.03
76205;BME280;64986;55.672;37.628;2023-04-06T01:21:53;100145.97;;;4.97;66.61
76205;BME280;64986;55.672;37.628;2023-04-06T01:24:19;100139.94;;;4.96;66.18
76205;BME280;64986;55.672;37.628;2023-04-06T01:26:45;100144.34;;;4.96;66.42
76205;BME280;64986;55.672;37.628;2023-04-06T01:29:11;100143.69;;;4.94;66.43
76205;BME280;64986;55.672;37.628;2023-04-06T01:31:36;100143.84;;;4.92;66.70
76205;BME280;64986;55.672;37.628;2023-04-06T01:34:02;100132.53;;;4.84;66.52
76205;BME280;64986;55.672;37.628;2023-04-06T01:36:27;100146.41;;;4.84;66.48
76205;BME280;64986;55.672;37.628;2023-04-06T01:38:53;100139.81;;;4.80;66.90
76205;BME280;64986;55.672;37.628;2023-04-06T01:41:19;100147.81;;;4.79;66.85
76205;BME280;64986;55.672;37.628;2023-04-06T01:43:45;100149.75;;;4.77;66.84
76205;BME280;64986;55.672;37.628;2023-04-06T01:46:11;100148.41;;;4.72;66.89
76205;BME280;64986;55.672;37.628;2023-04-06T01:48:36;100139.09;;;4.70;66.82
76205;BME280;64986;55.672;37.628;2023-04-06T01:51:02;100149.66;;;4.68;66.87
76205;BME280;64986;55.672;37.628;2023-04-06T01:53:27;100141.84;;;4.68;67.04
76205;BME280;64986;55.672;37.628;2023-04-06T01:55:53;100143.78;;;4.66;67.11
76205;BME280;64986;55.672;37.628;2023-04-06T01:58:18;100142.81;;;4.67;67.08
76205;BME280;64986;55.672;37.628;2023-04-06T02:00:44;100146.56;;;4.65;67.17
76205;BME280;64986;55.672;37.628;2023-04-06T02:03:09;100144.09;;;4.63;67.09
76205;BME280;64986;55.672;37.628;2023-04-06T02:05:35;100152.06;;;4.62;67.13
76205;BME280;64986;55.672;37.628;2023-04-06T02:08:04;100149.59;;;4.60;66.89
76205;BME280;64986;55.672;37.628;2023-04-06T02:10:31;100154.97;;;4.59;67.08
76205;BME280;64986;55.672;37.628;2023-04-06T02:12:56;100157.41;;;4.60;67.16
76205;BME280;64986;55.672;37.628;2023-04-06T02:15:22;100149.75;;;4.59;67.56
76205;BME280;64986;55.672;37.628;2023-04-06T02:17:48;100154.00;;;4.60;67.55
76205;BME280;64986;55.672;37.628;2023-04-06T02:20:13;100155.78;;;4.59;67.56
76205;BME280;64986;55.672;37.628;2023-04-06T02:22:39;100155.78;;;4.59;67.19
76205;BME280;64986;55.672;37.628;2023-04-06T02:25:05;100155.78;;;4.59;67.21
76205;BME280;64986;55.672;37.628;2023-04-06T02:27:31;100157.56;;;4.59;67.43
76205;BME280;64986;55.672;37.628;2023-04-06T02:29:56;100156.75;;;4.58;67.21
76205;BME280;64986;55.672;37.628;2023-04-06T02:32:22;100166.38;;;4.58;67.41
76205;BME280;64986;55.672;37.628;2023-04-06T02:34:47;100168.31;;;4.56;67.19
76205;BME280;64986;55.672;37.628;2023-04-06T02:37:13;100169.94;;;4.57;67.21
76205;BME280;64986;55.672;37.628;2023-04-06T02:39:38;100166.69;;;4.55;67.39
76205;BME280;64986;55.672;37.628;2023-04-06T02:42:04;100156.03;;;4.48;67.45
76205;BME280;64986;55.672;37.628;2023-04-06T02:44:29;100180.69;;;4.54;67.74
76205;BME280;64986;55.672;37.628;2023-04-06T02:46:55;100177.38;;;4.52;67.09
76205;BME280;64986;55.672;37.628;2023-04-06T02:49:20;100180.81;;;4.52;67.54
76205;BME280;64986;55.672;37.628;2023-04-06T02:51:46;100180.81;;;4.52;67.48
76205;BME280;64986;55.672;37.628;2023-04-06T02:54:12;100190.97;;;4.55;67.68
76205;BME280;64986;55.672;37.628;2023-04-06T02:56:37;100187.16;;;4.50;67.11
76205;BME280;64986;55.672;37.628;2023-04-06T02:59:03;100186.03;;;4.52;67.26
76205;BME280;64986;55.672;37.628;2023-04-06T03:01:28;100185.91;;;4.54;67.37
76205;BME280;64986;55.672;37.628;2023-04-06T03:03:54;100189.00;;;4.57;67.62
76205;BME280;64986;55.672;37.628;2023-04-06T03:06:19;100190.81;;;4.57;67.31
76205;BME280;64986;55.672;37.628;2023-04-06T03:08:45;100191.47;;;4.59;67.30
76205;BME280;64986;55.672;37.628;2023-04-06T03:11:10;100198.03;;;4.63;66.90
76205;BME280;64986;55.672;37.628;2023-04-06T03:13:37;100197.22;;;4.62;67.07
76205;BME280;64986;55.672;37.628;2023-04-06T03:16:04;100196.91;;;4.65;66.93
76205;BME280;64986;55.672;37.628;2023-04-06T03:18:31;100191.25;;;4.70;66.88
76205;BME280;64986;55.672;37.628;2023-04-06T03:20:56;100195.34;;;4.72;66.80
76205;BME280;64986;55.672;37.628;2023-04-06T03:23:22;100189.69;;;4.77;66.79
76205;BME280;64986;55.672;37.628;2023-04-06T03:25:48;100200.34;;;4.84;66.35
76205;BME280;64986;55.672;37.628;2023-04-06T03:28:13;100199.22;;;4.86;66.51
76205;BME280;64986;55.672;37.628;2023-04-06T03:30:39;100203.97;;;4.91;66.36
76205;BME280;64986;55.672;37.628;2023-04-06T03:33:05;100206.97;;;4.96;66.34
76205;BME280;64986;55.672;37.628;2023-04-06T03:35:31;100210.75;;;5.01;65.98
76205;BME280;64986;55.672;37.628;2023-04-06T03:37:56;100210.44;;;5.05;65.80
76205;BME280;64986;55.672;37.628;2023-04-06T03:40:22;100215.22;;;5.09;65.75
76205;BME280;64986;55.672;37.628;2023-04-06T03:42:48;100212.13;;;5.14;65.52
76205;BME280;64986;55.672;37.628;2023-04-06T03:45:14;100221.16;;;5.19;65.21
76205;BME280;64986;55.672;37.628;2023-04-06T03:47:39;100214.69;;;5.23;65.23
76205;BME280;64986;55.672;37.628;2023-04-06T03:50:05;100222.19;;;5.26;64.82
76205;BME280;64986;55.672;37.628;2023-04-06T03:52:31;100217.94;;;5.25;64.70
76205;BME280;64986;55.672;37.628;2023-04-06T03:54:56;100219.81;;;5.33;64.76
76205;BME280;64986;55.672;37.628;2023-04-06T03:57:22;100223.44;;;5.40;64.77
76205;BME280;64986;55.672;37.628;2023-04-06T03:59:48;100225.59;;;5.45;64.67
76205;BME280;64986;55.672;37.628;2023-04-06T04:02:13;100226.63;;;5.52;64.37
76205;BME280;64986;55.672;37.628;2023-04-06T04:04:39;100226.00;;;5.58;64.10
76205;BME280;64986;55.672;37.628;2023-04-06T04:07:04;100230.44;;;5.66;63.93
76205;BME280;64986;55.672;37.628;2023-04-06T04:09:30;100233.56;;;5.69;63.79
76205;BME280;64986;55.672;37.628;2023-04-06T04:11:55;100232.28;;;5.73;63.30
76205;BME280;64986;55.672;37.628;2023-04-06T04:14:21;100230.84;;;5.79;63.38
76205;BME280;64986;55.672;37.628;2023-04-06T04:16:47;100235.47;;;5.85;63.37
76205;BME280;64986;55.672;37.628;2023-04-06T04:19:12;100239.94;;;5.93;62.99
76205;BME280;64986;55.672;37.628;2023-04-06T04:21:45;100243.41;;;6.01;63.27
76205;BME280;64986;55.672;37.628;2023-04-06T04:24:11;100240.78;;;6.01;62.76
76205;BME280;64986;55.672;37.628;2023-04-06T04:26:37;100240.97;;;6.08;62.87
76205;BME280;64986;55.672;37.628;2023-04-06T04:29:03;100236.78;;;6.15;62.63
76205;BME280;64986;55.672;37.628;2023-04-06T04:31:29;100240.56;;;6.21;62.36
76205;BME280;64986;55.672;37.628;2023-04-06T04:33:54;100243.34;;;6.27;62.13
76205;BME280;64986;55.672;37.628;2023-04-06T04:36:20;100245.31;;;6.33;62.01
76205;BME280;64986;55.672;37.628;2023-04-06T04:38:46;100250.09;;;6.38;61.69
76205;BME280;64986;55.672;37.628;2023-04-06T04:41:11;100238.16;;;6.35;61.88
76205;BME280;64986;55.672;37.628;2023-04-06T04:43:37;100230.63;;;6.40;61.81
76205;BME280;64986;55.672;37.628;2023-04-06T04:46:04;100243.59;;;6.50;61.29
76205;BME280;64986;55.672;37.628;2023-04-06T04:48:30;100237.69;;;6.56;61.20
76205;BME280;64986;55.672;37.628;2023-04-06T04:50:55;100240.50;;;6.63;60.82
76205;BME280;64986;55.672;37.628;2023-04-06T04:53:21;100235.78;;;6.66;60.98
76205;BME280;64986;55.672;37.628;2023-04-06T04:55:47;100244.44;;;6.75;60.88
76205;BME280;64986;55.672;37.628;2023-04-06T04:58:12;100245.44;;;6.82;60.79
76205;BME280;64986;55.672;37.628;2023-04-06T05:00:42;100241.50;;;6.86;60.17
76205;BME280;64986;55.672;37.628;2023-04-06T05:03:09;100244.94;;;6.95;60.11
76205;BME280;64986;55.672;37.628;2023-04-06T05:05:39;100246.91;;;7.01;59.77
76205;BME280;64986;55.672;37.628;2023-04-06T05:08:04;100239.56;;;7.05;59.57
76205;BME280;64986;55.672;37.628;2023-04-06T05:10:30;100247.44;;;7.05;59.17
76205;BME280;64986;55.672;37.628;2023-04-06T05:12:56;100234.34;;;7.05;59.58
76205;BME280;64986;55.672;37.628;2023-04-06T05:15:21;100227.78;;;7.09;59.16
76205;BME280;64986;55.672;37.628;2023-04-06T05:17:47;100239.22;;;7.16;59.23
76205;BME280;64986;55.672;37.628;2023-04-06T05:20:13;100246.59;;;7.29;59.03
76205;BME280;64986;55.672;37.628;2023-04-06T05:22:38;100238.75;;;7.37;58.59
76205;BME280;64986;55.672;37.628;2023-04-06T05:25:04;100241.34;;;7.45;58.53
76205;BME280;64986;55.672;37.628;2023-04-06T05:27:30;100241.50;;;7.51;58.17
76205;BME280;64986;55.672;37.628;2023-04-06T05:29:56;100238.41;;;7.56;58.25
76205;BME280;64986;55.672;37.628;2023-04-06T05:32:21;100247.22;;;7.63;58.10
76205;BME280;64986;55.672;37.628;2023-04-06T05:34:49;100243.28;;;7.67;57.77
76205;BME280;64986;55.672;37.628;2023-04-06T05:37:15;100242.78;;;7.72;57.42
76205;BME280;64986;55.672;37.628;2023-04-06T05:39:41;100240.47;;;7.77;57.47
76205;BME280;64986;55.672;37.628;2023-04-06T05:42:07;100238.81;;;7.84;56.77
76205;BME280;64986;55.672;37.628;2023-04-06T05:44:33;100243.72;;;7.87;56.47
76205;BME280;64986;55.672;37.628;2023-04-06T05:46:58;100246.50;;;7.94;56.93
76205;BME280;64986;55.672;37.628;2023-04-06T05:49:24;100241.06;;;8.03;57.10
76205;BME280;64986;55.672;37.628;2023-04-06T05:51:50;100248.38;;;8.08;56.57
76205;BME280;64986;55.672;37.628;2023-04-06T05:54:15;100244.28;;;8.14;56.64
76205;BME280;64986;55.672;37.628;2023-04-06T05:56:41;100249.50;;;8.22;56.20
76205;BME280;64986;55.672;37.628;2023-04-06T05:59:06;100249.63;;;8.28;55.64
76205;BME280;64986;55.672;37.628;2023-04-06T06:01:33;100239.94;;;8.29;55.48
76205;BME280;64986;55.672;37.628;2023-04-06T06:04:02;100246.38;;;8.26;55.51
76205;BME280;64986;55.672;37.628;2023-04-06T06:06:29;100249.81;;;8.27;55.33
76205;BME280;64986;55.672;37.628;2023-04-06T06:08:57;100252.56;;;8.33;55.57
76205;BME280;64986;55.672;37.628;2023-04-06T06:11:26;100254.19;;;8.43;54.68
76205;BME280;64986;55.672;37.628;2023-04-06T06:13:51;100246.09;;;8.52;55.05
76205;BME280;64986;55.672;37.628;2023-04-06T06:16:18;100248.50;;;8.62;54.49
76205;BME280;64986;55.672;37.628;2023-04-06T06:18:44;100251.53;;;8.74;54.40
76205;BME280;64986;55.672;37.628;2023-04-06T06:21:10;100246.25;;;8.82;54.27
76205;BME280;64986;55.672;37.628;2023-04-06T06:23:38;100241.59;;;8.92;53.94
76205;BME280;64986;55.672;37.628;2023-04-06T06:26:03;100244.78;;;9.02;54.02
76205;BME280;64986;55.672;37.628;2023-04-06T06:28:30;100243.91;;;9.10;53.46
76205;BME280;64986;55.672;37.628;2023-04-06T06:30:55;100228.91;;;9.18;53.14
76205;BME280;64986;55.672;37.628;2023-04-06T06:33:21;100234.50;;;9.15;53.03
76205;BME280;64986;55.672;37.628;2023-04-06T06:35:46;100238.88;;;9.23;53.39
76205;BME280;64986;55.672;37.628;2023-04-06T06:38:12;100233.06;;;9.28;52.65
76205;BME280;64986;55.672;37.628;2023-04-06T06:40:37;100233.81;;;9.36;52.84
76205;BME280;64986;55.672;37.628;2023-04-06T06:43:03;100229.16;;;9.47;52.47
76205;BME280;64986;55.672;37.628;2023-04-06T06:45:29;100219.06;;;9.50;52.29
76205;BME280;64986;55.672;37.628;2023-04-06T06:47:54;100225.81;;;9.53;52.10
76205;BME280;64986;55.672;37.628;2023-04-06T06:50:20;100238.56;;;9.56;52.17
76205;BME280;64986;55.672;37.628;2023-04-06T06:52:46;100234.94;;;9.57;51.98
76205;BME280;64986;55.672;37.628;2023-04-06T06:55:11;100230.22;;;9.67;51.84
76205;BME280;64986;55.672;37.628;2023-04-06T06:57:37;100231.81;;;9.76;51.84
76205;BME280;64986;55.672;37.628;2023-04-06T07:00:04;100232.63;;;9.91;51.63
76205;BME280;64986;55.672;37.628;2023-04-06T07:02:30;100236.06;;;10.07;51.77
76205;BME280;64986;55.672;37.628;2023-04-06T07:04:56;100235.94;;;10.15;50.92
76205;BME280;64986;55.672;37.628;2023-04-06T07:07:22;100241.56;;;10.26;50.77
76205;BME280;64986;55.672;37.628;2023-04-06T07:09:47;100232.41;;;10.37;50.37
76205;BME280;64986;55.672;37.628;2023-04-06T07:12:13;100233.31;;;10.44;50.02
76205;BME280;64986;55.672;37.628;2023-04-06T07:14:38;100232.09;;;10.47;49.68
76205;BME280;64986;55.672;37.628;2023-04-06T07:17:04;100228.16;;;10.57;49.71
76205;BME280;64986;55.672;37.628;2023-04-06T07:19:30;100233.50;;;10.64;49.64
76205;BME280;64986;55.672;37.628;2023-04-06T07:21:56;100231.75;;;10.71;49.36
76205;BME280;64986;55.672;37.628;2023-04-06T07:24:21;100230.47;;;10.82;49.18
76205;BME280;64986;55.672;37.628;2023-04-06T07:26:47;100230.53;;;10.89;48.71
76205;BME280;64986;55.672;37.628;2023-04-06T07:29:12;100224.31;;;10.96;48.93
76205;BME280;64986;55.672;37.628;2023-04-06T07:31:38;100230.28;;;11.05;48.52
76205;BME280;64986;55.672;37.628;2023-04-06T07:34:03;100238.38;;;11.03;48.35
76205;BME280;64986;55.672;37.628;2023-04-06T07:36:29;100237.16;;;11.06;48.13
76205;BME280;64986;55.672;37.628;2023-04-06T07:38:54;100232.78;;;11.13;47.74
76205;BME280;64986;55.672;37.628;2023-04-06T07:41:20;100235.06;;;11.23;47.78
76205;BME280;64986;55.672;37.628;2023-04-06T07:43:45;100229.84;;;11.29;47.80
76205;BME280;64986;55.672;37.628;2023-04-06T07:46:11;100223.97;;;11.27;47.82
76205;BME280;64986;55.672;37.628;2023-04-06T07:48:36;100233.63;;;11.42;47.44
76205;BME280;64986;55.672;37.628;2023-04-06T07:51:03;100226.97;;;11.52;46.68
76205;BME280;64986;55.672;37.628;2023-04-06T07:53:30;100231.28;;;11.60;46.77
76205;BME280;64986;55.672;37.628;2023-04-06T07:55:57;100234.38;;;11.70;46.67
76205;BME280;64986;55.672;37.628;2023-04-06T07:58:23;100228.97;;;11.78;46.71
76205;BME280;64986;55.672;37.628;2023-04-06T08:00:48;100234.50;;;11.83;46.59
76205;BME280;64986;55.672;37.628;2023-04-06T08:03:14;100231.91;;;11.90;46.38
76205;BME280;64986;55.672;37.628;2023-04-06T08:05:41;100229.31;;;11.97;45.85
76205;BME280;64986;55.672;37.628;2023-04-06T08:08:07;100229.53;;;12.02;45.37
76205;BME280;64986;55.672;37.628;2023-04-06T08:10:33;100230.97;;;12.04;45.68
76205;BME280;64986;55.672;37.628;2023-04-06T08:13:00;100232.41;;;12.07;45.79
76205;BME280;64986;55.672;37.628;2023-04-06T08:15:25;100239.72;;;12.11;45.39
76205;BME280;64986;55.672;37.628;2023-04-06T08:17:51;100229.78;;;12.13;44.51
76205;BME280;64986;55.672;37.628;2023-04-06T08:20:17;100228.81;;;12.21;45.15
76205;BME280;64986;55.672;37.628;2023-04-06T08:22:42;100235.34;;;12.32;45.04
76205;BME280;64986;55.672;37.628;2023-04-06T08:25:08;100236.81;;;12.41;44.45
76205;BME280;64986;55.672;37.628;2023-04-06T08:27:33;100232.16;;;12.49;44.10
76205;BME280;64986;55.672;37.628;2023-04-06T08:29:59;100238.47;;;12.62;44.39
76205;BME280;64986;55.672;37.628;2023-04-06T08:32:25;100232.03;;;12.71;44.36
76205;BME280;64986;55.672;37.628;2023-04-06T08:34:53;100226.75;;;12.71;43.12
76205;BME280;64986;55.672;37.628;2023-04-06T08:37:21;100226.75;;;12.71;44.01
76205;BME280;64986;55.672;37.628;2023-04-06T08:39:46;100227.97;;;12.82;43.48
76205;BME280;64986;55.672;37.628;2023-04-06T08:42:20;100230.41;;;12.96;43.84
76205;BME280;64986;55.672;37.628;2023-04-06T08:44:48;100222.06;;;12.99;43.52
76205;BME280;64986;55.672;37.628;2023-04-06T08:47:16;100224.94;;;13.04;43.20
76205;BME280;64986;55.672;37.628;2023-04-06T08:49:42;100216.59;;;13.14;42.56
76205;BME280;64986;55.672;37.628;2023-04-06T08:52:10;100223.53;;;13.22;42.59
76205;BME280;64986;55.672;37.628;2023-04-06T08:54:38;100221.91;;;13.34;42.49
76205;BME280;64986;55.672;37.628;2023-04-06T08:57:04;100215.00;;;13.40;42.57
76205;BME280;64986;55.672;37.628;2023-04-06T08:59:31;100217.66;;;13.46;42.18
76205;BME280;64986;55.672;37.628;2023-04-06T09:01:57;100212.75;;;13.56;41.47
76205;BME280;64986;55.672;37.628;2023-04-06T09:04:24;100210.47;;;13.67;41.75
76205;BME280;64986;55.672;37.628;2023-04-06T09:06:51;100216.97;;;13.77;41.22
76205;BME280;64986;55.672;37.628;2023-04-06T09:09:17;100206.75;;;13.87;40.57
76205;BME280;64986;55.672;37.628;2023-04-06T09:11:45;100215.72;;;13.93;41.20
76205;BME280;64986;55.672;37.628;2023-04-06T09:14:11;100210.41;;;14.00;40.52
76205;BME280;64986;55.672;37.628;2023-04-06T09:16:41;100208.31;;;14.15;40.03
76205;BME280;64986;55.672;37.628;2023-04-06T09:19:07;100210.06;;;14.28;39.52
76205;BME280;64986;55.672;37.628;2023-04-06T09:21:32;100208.34;;;14.53;39.57
76205;BME280;64986;55.672;37.628;2023-04-06T09:24:02;100205.66;;;15.60;37.65
76205;BME280;64986;55.672;37.628;2023-04-06T09:26:27;100208.75;;;16.78;35.92
76205;BME280;64986;55.672;37.628;2023-04-06T09:28:55;100205.00;;;17.80;34.36
76205;BME280;64986;55.672;37.628;2023-04-06T09:31:31;100200.75;;;19.09;33.15
76205;BME280;64986;55.672;37.628;2023-04-06T09:34:00;100202.72;;;20.13;31.37
76205;BME280;64986;55.672;37.628;2023-04-06T09:36:32;100203.13;;;21.08;30.19
76205;BME280;64986;55.672;37.628;2023-04-06T09:39:01;100207.19;;;21.48;30.08
76205;BME280;64986;55.672;37.628;2023-04-06T09:41:31;100190.66;;;22.24;28.66
76205;BME280;64986;55.672;37.628;2023-04-06T09:44:10;100205.00;;;23.06;29.13
76205;BME280;64986;55.672;37.628;2023-04-06T09:46:41;100200.13;;;23.33;26.74
76205;BME280;64986;55.672;37.628;2023-04-06T09:49:08;100188.53;;;23.58;27.20
76205;BME280;64986;55.672;37.628;2023-04-06T09:51:53;100198.19;;;24.29;25.51
76205;BME280;64986;55.672;37.628;2023-04-06T09:54:21;100189.47;;;24.86;25.38
76205;BME280;64986;55.672;37.628;2023-04-06T09:56:51;100195.34;;;25.52;22.76
76205;BME280;64986;55.672;37.628;2023-04-06T09:59:36;100199.81;;;26.28;21.60
76205;BME280;64986;55.672;37.628;2023-04-06T10:02:05;100187.91;;;26.10;23.15
76205;BME280;64986;55.672;37.628;2023-04-06T10:04:34;100183.47;;;26.38;21.82
76205;BME280;64986;55.672;37.628;2023-04-06T10:07:02;100190.59;;;26.86;21.42
76205;BME280;64986;55.672;37.628;2023-04-06T10:09:29;100186.41;;;27.26;20.91
76205;BME280;64986;55.672;37.628;2023-04-06T10:12:05;100190.06;;;27.90;21.44
76205;BME280;64986;55.672;37.628;2023-04-06T10:14:34;100186.66;;;27.71;19.84
76205;BME280;64986;55.672;37.628;2023-04-06T10:17:05;100177.13;;;27.73;19.77
76205;BME280;64986;55.672;37.628;2023-04-06T10:19:46;100186.50;;;28.75;17.70
76205;BME280;64986;55.672;37.628;2023-04-06T10:22:21;100185.03;;;29.23;18.29
76205;BME280;64986;55.672;37.628;2023-04-06T10:24:49;100190.91;;;29.47;18.22
76205;BME280;64986;55.672;37.628;2023-04-06T10:27:15;100185.91;;;29.72;17.44
76205;BME280;64986;55.672;37.628;2023-04-06T10:29:47;100184.09;;;30.42;16.44
76205;BME280;64986;55.672;37.628;2023-04-06T10:32:16;100177.84;;;30.58;16.83
76205;BME280;64986;55.672;37.628;2023-04-06T10:34:41;100174.91;;;30.98;16.25
76205;BME280;64986;55.672;37.628;2023-04-06T10:37:12;100177.16;;;31.52;15.33
76205;BME280;64986;55.672;37.628;2023-04-06T10:39:46;100183.84;;;31.92;14.71
76205;BME280;64986;55.672;37.628;2023-04-06T10:42:12;100176.59;;;33.50;16.43
76205;BME280;64986;55.672;37.628;2023-04-06T10:44:42;100167.69;;;31.87;14.99
76205;BME280;64986;55.672;37.628;2023-04-06T10:47:16;100170.97;;;32.22;14.97
76205;BME280;64986;55.672;37.628;2023-04-06T10:49:45;100165.69;;;32.59;14.69
76205;BME280;64986;55.672;37.628;2023-04-06T10:52:11;100175.50;;;33.05;14.07
76205;BME280;64986;55.672;37.628;2023-04-06T10:54:41;100173.84;;;33.62;13.40
76205;BME280;64986;55.672;37.628;2023-04-06T10:57:09;100175.47;;;33.51;13.75
76205;BME280;64986;55.672;37.628;2023-04-06T10:59:35;100167.22;;;34.00;13.36
76205;BME280;64986;55.672;37.628;2023-04-06T11:02:00;100168.19;;;34.19;12.86
76205;BME280;64986;55.672;37.628;2023-04-06T11:04:26;100174.03;;;34.06;13.03
76205;BME280;64986;55.672;37.628;2023-04-06T11:06:51;100172.00;;;34.43;12.73
76205;BME280;64986;55.672;37.628;2023-04-06T11:09:28;100165.94;;;35.56;11.13
76205;BME280;64986;55.672;37.628;2023-04-06T11:11:54;100202.09;;;35.46;11.63
76205;BME280;64986;55.672;37.628;2023-04-06T11:14:20;100169.47;;;35.57;11.74
76205;BME280;64986;55.672;37.628;2023-04-06T11:16:47;100168.19;;;35.86;11.62
76205;BME280;64986;55.672;37.628;2023-04-06T11:19:15;100167.06;;;36.26;11.15
76205;BME280;64986;55.672;37.628;2023-04-06T11:21:43;100164.94;;;36.77;11.15
76205;BME280;64986;55.672;37.628;2023-04-06T11:24:13;100166.41;;;36.90;10.96
76205;BME280;64986;55.672;37.628;2023-04-06T11:29:05;100165.38;;;37.25;10.35
76205;BME280;64986;55.672;37.628;2023-04-06T11:31:31;100157.69;;;37.57;10.02
76205;BME280;64986;55.672;37.628;2023-04-06T11:33:57;100161.69;;;37.90;10.33
76205;BME280;64986;55.672;37.628;2023-04-06T11:36:23;100160.69;;;37.48;9.97
76205;BME280;64986;55.672;37.628;2023-04-06T11:38:48;100144.78;;;37.61;9.79
76205;BME280;64986;55.672;37.628;2023-04-06T11:41:14;100158.63;;;37.95;9.82
76205;BME280;64986;55.672;37.628;2023-04-06T11:43:46;100155.44;;;38.60;9.95
76205;BME280;64986;55.672;37.628;2023-04-06T11:46:17;100154.19;;;38.50;9.51
76205;BME280;64986;55.672;37.628;2023-04-06T11:48:44;100151.03;;;38.52;9.82
76205;BME280;64986;55.672;37.628;2023-04-06T11:51:10;100151.19;;;38.66;9.07
76205;BME280;64986;55.672;37.628;2023-04-06T11:53:44;100150.91;;;39.16;9.14
76205;BME280;64986;55.672;37.628;2023-04-06T11:56:11;100145.28;;;38.64;9.58
76205;BME280;64986;55.672;37.628;2023-04-06T11:58:36;100152.94;;;38.44;9.33
76205;BME280;64986;55.672;37.628;2023-04-06T12:01:05;100147.63;;;39.03;8.98
76205;BME280;64986;55.672;37.628;2023-04-06T12:03:31;100143.34;;;39.09;8.88
76205;BME280;64986;55.672;37.628;2023-04-06T12:05:56;100136.69;;;39.13;8.79
76205;BME280;64986;55.672;37.628;2023-04-06T12:08:22;100136.63;;;39.58;9.01
76205;BME280;64986;55.672;37.628;2023-04-06T12:10:50;100137.13;;;39.78;8.60
76205;BME280;64986;55.672;37.628;2023-04-06T12:13:16;100132.16;;;40.12;8.41
76205;BME280;64986;55.672;37.628;2023-04-06T12:15:42;100138.13;;;40.35;8.21
76205;BME280;64986;55.672;37.628;2023-04-06T12:18:07;100134.91;;;40.12;8.38
76205;BME280;64986;55.672;37.628;2023-04-06T12:20:33;100133.34;;;40.11;8.11
76205;BME280;64986;55.672;37.628;2023-04-06T12:22:58;100132.97;;;40.16;8.34
76205;BME280;64986;55.672;37.628;2023-04-06T12:25:24;100133.81;;;40.31;8.27
76205;BME280;64986;55.672;37.628;2023-04-06T12:27:50;100128.75;;;40.65;8.05
76205;BME280;64986;55.672;37.628;2023-04-06T12:30:15;100130.75;;;40.61;7.90
76205;BME280;64986;55.672;37.628;2023-04-06T12:32:41;100130.75;;;40.79;7.71
76205;BME280;64986;55.672;37.628;2023-04-06T12:35:07;100122.47;;;40.75;7.94
76205;BME280;64986;55.672;37.628;2023-04-06T12:37:34;100139.47;;;40.98;7.81
76205;BME280;64986;55.672;37.628;2023-04-06T12:39:59;100132.72;;;40.85;7.87
76205;BME280;64986;55.672;37.628;2023-04-06T12:42:25;100126.81;;;41.08;7.74
76205;BME280;64986;55.672;37.628;2023-04-06T12:44:51;100128.00;;;41.36;7.23